Pine City, New York
Current Conditions -  °F | °C
As of 12:53 PM on Monday 26 Jan 2015 (Local Time) from KELM Reporting Station
Light Snow Light Snow  
Wind Chill:   Ceiling: 1600
Heat Index: 18°   Visibility: 0.75mi
Dew Point: 14°   Wind: 8mph
Humidity: 84%   Direction: 60°ENE
Pressure: 29.87"   Gusts: NA
Location:  42.04°N, 76.87°W
Report Text: KELM 261753Z 06007KT 3/4SM -SN BR VV016 M08/M10 A2987 RMK AO2 SLP130 P0001 60004 T10781100 11078 21106 58018 RVRNO
Loading
Personal Weather Stations






























Interactive Weather Map New forecast layout! Learn more

10-Day Weather Forecast

Advertisements
Track Severe Weather on mobile